sensor_id;sensor_type;location;lat;lon;timestamp;pressure;altitude;pressure_sealevel;temperature;humidity
21431;BME280;10876;49.038;10.608;2022-11-27T11:53:26;98602.00;;;5.52;100.00
21431;BME280;10876;49.038;10.608;2022-11-27T11:56:00;98585.94;;;5.11;100.00
21431;BME280;10876;49.038;10.608;2022-11-27T11:58:42;98565.81;;;5.22;100.00
21431;BME280;10876;49.038;10.608;2022-11-27T12:01:24;98568.84;;;5.15;100.00
21431;BME280;10876;49.038;10.608;2022-11-27T12:04:01;98553.97;;;4.97;100.00
21431;BME280;10876;49.038;10.608;2022-11-27T12:06:37;98544.75;;;4.99;100.00
21431;BME280;10876;49.038;10.608;2022-11-27T12:09:23;98521.59;;;5.11;100.00
21431;BME280;10876;49.038;10.608;2022-11-27T12:11:58;98506.63;;;5.19;100.00
21431;BME280;10876;49.038;10.608;2022-11-27T12:14:38;98504.38;;;5.31;100.00
21431;BME280;10876;49.038;10.608;2022-11-27T12:17:17;98506.03;;;5.32;100.00
21431;BME280;10876;49.038;10.608;2022-11-27T12:20:04;98486.81;;;5.24;100.00
21431;BME280;10876;49.038;10.608;2022-11-27T12:22:43;98471.81;;;5.26;100.00
21431;BME280;10876;49.038;10.608;2022-11-27T12:25:25;98471.47;;;5.04;100.00
21431;BME280;10876;49.038;10.608;2022-11-27T12:28:04;98457.06;;;5.03;100.00
21431;BME280;10876;49.038;10.608;2022-11-27T12:30:42;98452.78;;;4.92;100.00
21431;BME280;10876;49.038;10.608;2022-11-27T12:33:27;98452.81;;;4.87;100.00
21431;BME280;10876;49.038;10.608;2022-11-27T12:36:06;98459.75;;;5.03;100.00
21431;BME280;10876;49.038;10.608;2022-11-27T12:38:55;98459.63;;;4.84;100.00
21431;BME280;10876;49.038;10.608;2022-11-27T12:41:49;98451.47;;;4.84;100.00
21431;BME280;10876;49.038;10.608;2022-11-27T12:44:27;98446.63;;;4.81;100.00
21431;BME280;10876;49.038;10.608;2022-11-27T12:46:59;98460.19;;;4.76;100.00
21431;BME280;10876;49.038;10.608;2022-11-27T12:49:31;98454.22;;;4.74;100.00
21431;BME280;10876;49.038;10.608;2022-11-27T12:52:06;98477.63;;;4.60;100.00
21431;BME280;10876;49.038;10.608;2022-11-27T12:54:38;98481.53;;;4.38;100.00
21431;BME280;10876;49.038;10.608;2022-11-27T12:57:12;98480.72;;;4.27;100.00
21431;BME280;10876;49.038;10.608;2022-11-27T12:59:43;98485.91;;;4.24;100.00
21431;BME280;10876;49.038;10.608;2022-11-27T13:02:25;98488.63;;;4.09;100.00
21431;BME280;10876;49.038;10.608;2022-11-27T13:04:56;98494.63;;;3.95;100.00
21431;BME280;10876;49.038;10.608;2022-11-27T13:07:27;98506.56;;;3.79;100.00
21431;BME280;10876;49.038;10.608;2022-11-27T13:10:09;98516.84;;;3.72;100.00
21431;BME280;10876;49.038;10.608;2022-11-27T13:12:45;98530.91;;;3.69;100.00
21431;BME280;10876;49.038;10.608;2022-11-27T13:15:20;98517.91;;;3.66;100.00
21431;BME280;10876;49.038;10.608;2022-11-27T13:17:54;98516.84;;;3.61;100.00
21431;BME280;10876;49.038;10.608;2022-11-27T13:20:29;98520.09;;;3.58;100.00
21431;BME280;10876;49.038;10.608;2022-11-27T13:22:58;98512.50;;;3.45;100.00
21431;BME280;10876;49.038;10.608;2022-11-27T13:25:25;98517.63;;;3.52;100.00
21431;BME280;10876;49.038;10.608;2022-11-27T13:27:55;98515.72;;;3.37;100.00
21431;BME280;10876;49.038;10.608;2022-11-27T13:30:25;98520.06;;;3.43;100.00
21431;BME280;10876;49.038;10.608;2022-11-27T13:32:55;98523.88;;;3.47;100.00
21431;BME280;10876;49.038;10.608;2022-11-27T13:35:27;98520.34;;;3.36;100.00
21431;BME280;10876;49.038;10.608;2022-11-27T13:37:59;98526.28;;;3.33;100.00
21431;BME280;10876;49.038;10.608;2022-11-27T13:40:36;98523.03;;;3.31;100.00
21431;BME280;10876;49.038;10.608;2022-11-27T13:43:21;98534.69;;;3.37;100.00
21431;BME280;10876;49.038;10.608;2022-11-27T13:46:00;98524.41;;;3.39;100.00
21431;BME280;10876;49.038;10.608;2022-11-27T13:48:31;98525.47;;;3.43;100.00
21431;BME280;10876;49.038;10.608;2022-11-27T13:50:58;98522.25;;;3.41;100.00
21431;BME280;10876;49.038;10.608;2022-11-27T13:53:30;98525.22;;;3.39;100.00
21431;BME280;10876;49.038;10.608;2022-11-27T13:55:57;98530.34;;;3.36;100.00
21431;BME280;10876;49.038;10.608;2022-11-27T13:58:33;98512.19;;;3.31;100.00
21431;BME280;10876;49.038;10.608;2022-11-27T14:01:12;98518.44;;;3.32;100.00
21431;BME280;10876;49.038;10.608;2022-11-27T14:03:39;98512.50;;;3.30;100.00
21431;BME280;10876;49.038;10.608;2022-11-27T14:06:15;98510.06;;;3.33;100.00
21431;BME280;10876;49.038;10.608;2022-11-27T14:08:48;98507.34;;;3.33;100.00
21431;BME280;10876;49.038;10.608;2022-11-27T14:11:32;98501.66;;;3.40;100.00
21431;BME280;10876;49.038;10.608;2022-11-27T14:14:02;98492.44;;;3.46;100.00
21431;BME280;10876;49.038;10.608;2022-11-27T14:16:37;98499.78;;;3.56;100.00
21431;BME280;10876;49.038;10.608;2022-11-27T14:19:22;98488.66;;;3.57;100.00
21431;BME280;10876;49.038;10.608;2022-11-27T14:21:49;98487.06;;;3.61;100.00
21431;BME280;10876;49.038;10.608;2022-11-27T14:24:24;98490.03;;;3.45;100.00
21431;BME280;10876;49.038;10.608;2022-11-27T14:26:51;98484.88;;;3.48;100.00
21431;BME280;10876;49.038;10.608;2022-11-27T14:29:21;98483.53;;;3.46;100.00
21431;BME280;10876;49.038;10.608;2022-11-27T14:31:55;98496.78;;;3.32;100.00
21431;BME280;10876;49.038;10.608;2022-11-27T14:34:27;98504.38;;;3.30;100.00
21431;BME280;10876;49.038;10.608;2022-11-27T14:36:54;98506.53;;;3.28;100.00
21431;BME280;10876;49.038;10.608;2022-11-27T14:39:23;98507.59;;;3.22;100.00
21431;BME280;10876;49.038;10.608;2022-11-27T14:42:00;98505.16;;;3.20;100.00
21431;BME280;10876;49.038;10.608;2022-11-27T14:44:29;98508.94;;;3.19;100.00
21431;BME280;10876;49.038;10.608;2022-11-27T14:46:59;98515.16;;;3.09;100.00
21431;BME280;10876;49.038;10.608;2022-11-27T14:49:28;98512.97;;;3.11;100.00
21431;BME280;10876;49.038;10.608;2022-11-27T14:51:58;98518.66;;;3.05;100.00
21431;BME280;10876;49.038;10.608;2022-11-27T14:54:28;98524.84;;;2.95;100.00
21431;BME280;10876;49.038;10.608;2022-11-27T14:56:56;98533.47;;;2.87;100.00
21431;BME280;10876;49.038;10.608;2022-11-27T14:59:24;98525.38;;;2.87;100.00
21431;BME280;10876;49.038;10.608;2022-11-27T15:02:01;98527.50;;;2.80;100.00
21431;BME280;10876;49.038;10.608;2022-11-27T15:04:32;98529.66;;;2.73;100.00
21431;BME280;10876;49.038;10.608;2022-11-27T15:07:03;98505.84;;;2.80;100.00
21431;BME280;10876;49.038;10.608;2022-11-27T15:09:31;98502.63;;;2.78;100.00
21431;BME280;10876;49.038;10.608;2022-11-27T15:12:04;98498.25;;;2.66;100.00
21431;BME280;10876;49.038;10.608;2022-11-27T15:14:31;98510.09;;;2.55;100.00
21431;BME280;10876;49.038;10.608;2022-11-27T15:16:59;98510.03;;;2.45;100.00
21431;BME280;10876;49.038;10.608;2022-11-27T15:19:28;98507.03;;;2.36;100.00
21431;BME280;10876;49.038;10.608;2022-11-27T15:21:56;98514.06;;;2.37;100.00
21431;BME280;10876;49.038;10.608;2022-11-27T15:24:29;98510.50;;;2.32;100.00
21431;BME280;10876;49.038;10.608;2022-11-27T15:27:06;98510.50;;;2.32;100.00
21431;BME280;10876;49.038;10.608;2022-11-27T15:29:39;98506.22;;;2.36;100.00
21431;BME280;10876;49.038;10.608;2022-11-27T15:32:15;98509.50;;;2.38;100.00
21431;BME280;10876;49.038;10.608;2022-11-27T15:34:42;98506.22;;;2.36;100.00
21431;BME280;10876;49.038;10.608;2022-11-27T15:37:20;98508.91;;;2.31;100.00
21431;BME280;10876;49.038;10.608;2022-11-27T15:39:49;98506.22;;;2.36;100.00
21431;BME280;10876;49.038;10.608;2022-11-27T15:42:17;98494.88;;;2.39;100.00
21431;BME280;10876;49.038;10.608;2022-11-27T15:44:45;98489.19;;;2.35;100.00
21431;BME280;10876;49.038;10.608;2022-11-27T15:47:21;98480.03;;;2.41;100.00
21431;BME280;10876;49.038;10.608;2022-11-27T15:49:51;98480.28;;;2.40;100.00
21431;BME280;10876;49.038;10.608;2022-11-27T15:52:18;98470.59;;;2.44;100.00
21431;BME280;10876;49.038;10.608;2022-11-27T15:54:45;98470.59;;;2.44;100.00
21431;BME280;10876;49.038;10.608;2022-11-27T15:57:12;98448.41;;;2.42;100.00
21431;BME280;10876;49.038;10.608;2022-11-27T15:59:38;98440.31;;;2.42;100.00
21431;BME280;10876;49.038;10.608;2022-11-27T16:02:05;98434.38;;;2.45;100.00
21431;BME280;10876;49.038;10.608;2022-11-27T16:04:33;98431.16;;;2.48;100.00
21431;BME280;10876;49.038;10.608;2022-11-27T16:07:03;98420.88;;;2.45;100.00
21431;BME280;10876;49.038;10.608;2022-11-27T16:09:34;98418.16;;;2.45;100.00
21431;BME280;10876;49.038;10.608;2022-11-27T16:12:01;98402.47;;;2.42;100.00
21431;BME280;10876;49.038;10.608;2022-11-27T16:14:28;98399.22;;;2.40;100.00
21431;BME280;10876;49.038;10.608;2022-11-27T16:16:54;98399.22;;;2.40;100.00
21431;BME280;10876;49.038;10.608;2022-11-27T16:19:21;98399.22;;;2.40;100.00
21431;BME280;10876;49.038;10.608;2022-11-27T16:21:51;98399.22;;;2.40;100.00
21431;BME280;10876;49.038;10.608;2022-11-27T16:24:21;98399.22;;;2.40;100.00
21431;BME280;10876;49.038;10.608;2022-11-27T16:26:47;98399.22;;;2.40;100.00
21431;BME280;10876;49.038;10.608;2022-11-27T16:29:14;98399.22;;;2.40;100.00
21431;BME280;10876;49.038;10.608;2022-11-27T16:31:41;98399.22;;;2.40;100.00
21431;BME280;10876;49.038;10.608;2022-11-27T16:34:07;98399.22;;;2.40;100.00
21431;BME280;10876;49.038;10.608;2022-11-27T16:36:34;98372.19;;;2.30;100.00
21431;BME280;10876;49.038;10.608;2022-11-27T16:39:03;98372.19;;;2.30;100.00
21431;BME280;10876;49.038;10.608;2022-11-27T16:41:29;98372.19;;;2.30;100.00
21431;BME280;10876;49.038;10.608;2022-11-27T16:43:56;98372.19;;;2.30;100.00
21431;BME280;10876;49.038;10.608;2022-11-27T16:46:24;98372.19;;;2.30;100.00
21431;BME280;10876;49.038;10.608;2022-11-27T16:48:52;98372.19;;;2.30;100.00
21431;BME280;10876;49.038;10.608;2022-11-27T16:51:22;98372.19;;;2.30;100.00
21431;BME280;10876;49.038;10.608;2022-11-27T16:53:50;98372.19;;;2.30;100.00
21431;BME280;10876;49.038;10.608;2022-11-27T16:56:23;98372.19;;;2.30;100.00
21431;BME280;10876;49.038;10.608;2022-11-27T16:58:50;98372.19;;;2.30;100.00
21431;BME280;10876;49.038;10.608;2022-11-27T17:01:18;98372.19;;;2.30;100.00
21431;BME280;10876;49.038;10.608;2022-11-27T17:03:46;98372.19;;;2.30;100.00
21431;BME280;10876;49.038;10.608;2022-11-27T17:06:14;98372.19;;;2.30;100.00
21431;BME280;10876;49.038;10.608;2022-11-27T17:08:41;98372.19;;;2.30;100.00
21431;BME280;10876;49.038;10.608;2022-11-27T17:11:08;98372.19;;;2.30;100.00
21431;BME280;10876;49.038;10.608;2022-11-27T17:13:36;98372.19;;;2.30;100.00
21431;BME280;10876;49.038;10.608;2022-11-27T17:16:04;98372.19;;;2.30;100.00
21431;BME280;10876;49.038;10.608;2022-11-27T17:18:35;98372.19;;;2.30;100.00
21431;BME280;10876;49.038;10.608;2022-11-27T17:21:03;98372.19;;;2.30;100.00
21431;BME280;10876;49.038;10.608;2022-11-27T17:23:30;98372.19;;;2.30;100.00
21431;BME280;10876;49.038;10.608;2022-11-27T17:25:57;98372.19;;;2.30;100.00
21431;BME280;10876;49.038;10.608;2022-11-27T17:28:24;98372.19;;;2.30;100.00
21431;BME280;10876;49.038;10.608;2022-11-27T17:30:52;98372.19;;;2.30;100.00
21431;BME280;10876;49.038;10.608;2022-11-27T17:33:19;98372.19;;;2.30;100.00
21431;BME280;10876;49.038;10.608;2022-11-27T17:35:45;98372.19;;;2.30;100.00
21431;BME280;10876;49.038;10.608;2022-11-27T17:38:12;98372.19;;;2.30;100.00
21431;BME280;10876;49.038;10.608;2022-11-27T17:40:39;98372.19;;;2.30;100.00
21431;BME280;10876;49.038;10.608;2022-11-27T17:43:06;98372.19;;;2.30;100.00
21431;BME280;10876;49.038;10.608;2022-11-27T17:45:32;98372.19;;;2.30;100.00
21431;BME280;10876;49.038;10.608;2022-11-27T17:48:00;98372.19;;;2.30;100.00
21431;BME280;10876;49.038;10.608;2022-11-27T17:50:27;98372.19;;;2.30;100.00
21431;BME280;10876;49.038;10.608;2022-11-27T17:52:54;98372.19;;;2.30;100.00
21431;BME280;10876;49.038;10.608;2022-11-27T17:55:20;98372.19;;;2.30;100.00
21431;BME280;10876;49.038;10.608;2022-11-27T17:57:47;98372.19;;;2.30;100.00
21431;BME280;10876;49.038;10.608;2022-11-27T18:00:14;98372.19;;;2.30;100.00
21431;BME280;10876;49.038;10.608;2022-11-27T18:02:42;98372.19;;;2.30;100.00
21431;BME280;10876;49.038;10.608;2022-11-27T18:05:11;98372.19;;;2.30;100.00
21431;BME280;10876;49.038;10.608;2022-11-27T18:07:37;98372.19;;;2.30;100.00
21431;BME280;10876;49.038;10.608;2022-11-27T18:10:05;98372.19;;;2.30;100.00
21431;BME280;10876;49.038;10.608;2022-11-27T18:12:32;98372.19;;;2.30;100.00
21431;BME280;10876;49.038;10.608;2022-11-27T18:14:59;98372.19;;;2.30;100.00
21431;BME280;10876;49.038;10.608;2022-11-27T18:17:27;98372.19;;;2.30;100.00
21431;BME280;10876;49.038;10.608;2022-11-27T18:19:54;98372.19;;;2.30;100.00
21431;BME280;10876;49.038;10.608;2022-11-27T18:22:24;98372.19;;;2.30;100.00
21431;BME280;10876;49.038;10.608;2022-11-27T18:24:51;98372.19;;;2.30;100.00
21431;BME280;10876;49.038;10.608;2022-11-27T18:27:17;98372.19;;;2.30;100.00
21431;BME280;10876;49.038;10.608;2022-11-27T18:29:45;98372.19;;;2.30;100.00
21431;BME280;10876;49.038;10.608;2022-11-27T18:32:13;98372.19;;;2.30;100.00
21431;BME280;10876;49.038;10.608;2022-11-27T18:34:41;98372.19;;;2.30;100.00
21431;BME280;10876;49.038;10.608;2022-11-27T18:37:08;98372.19;;;2.30;100.00
21431;BME280;10876;49.038;10.608;2022-11-27T18:39:37;98372.19;;;2.30;100.00
21431;BME280;10876;49.038;10.608;2022-11-27T18:42:04;98372.19;;;2.30;100.00
21431;BME280;10876;49.038;10.608;2022-11-27T18:44:32;98372.19;;;2.30;100.00
21431;BME280;10876;49.038;10.608;2022-11-27T18:46:59;98372.19;;;2.30;100.00
21431;BME280;10876;49.038;10.608;2022-11-27T18:49:26;98372.19;;;2.30;100.00
21431;BME280;10876;49.038;10.608;2022-11-27T18:51:53;98372.19;;;2.30;100.00
21431;BME280;10876;49.038;10.608;2022-11-27T18:54:20;98372.19;;;2.30;100.00
21431;BME280;10876;49.038;10.608;2022-11-27T18:56:49;98372.19;;;2.30;100.00
21431;BME280;10876;49.038;10.608;2022-11-27T18:59:15;98372.19;;;2.30;100.00
21431;BME280;10876;49.038;10.608;2022-11-27T19:01:42;98372.19;;;2.30;100.00
21431;BME280;10876;49.038;10.608;2022-11-27T19:04:09;98372.19;;;2.30;100.00
21431;BME280;10876;49.038;10.608;2022-11-27T19:06:37;98372.19;;;2.30;100.00
21431;BME280;10876;49.038;10.608;2022-11-27T19:09:06;98372.19;;;2.30;100.00
21431;BME280;10876;49.038;10.608;2022-11-27T19:11:35;98372.19;;;2.30;100.00
21431;BME280;10876;49.038;10.608;2022-11-27T19:14:04;98372.19;;;2.30;100.00
21431;BME280;10876;49.038;10.608;2022-11-27T19:16:32;98372.19;;;2.30;100.00
21431;BME280;10876;49.038;10.608;2022-11-27T19:19:00;98372.19;;;2.30;100.00
21431;BME280;10876;49.038;10.608;2022-11-27T19:21:29;98372.19;;;2.30;100.00
21431;BME280;10876;49.038;10.608;2022-11-27T19:23:57;98372.19;;;2.30;100.00
21431;BME280;10876;49.038;10.608;2022-11-27T19:26:26;98372.19;;;2.30;100.00
21431;BME280;10876;49.038;10.608;2022-11-27T19:28:54;98372.19;;;2.30;100.00
21431;BME280;10876;49.038;10.608;2022-11-27T19:31:23;98372.19;;;2.30;100.00
21431;BME280;10876;49.038;10.608;2022-11-27T19:33:51;98372.19;;;2.30;100.00
21431;BME280;10876;49.038;10.608;2022-11-27T19:36:18;98372.19;;;2.30;100.00
21431;BME280;10876;49.038;10.608;2022-11-27T19:38:45;98372.19;;;2.30;100.00
21431;BME280;10876;49.038;10.608;2022-11-27T19:41:13;98372.19;;;2.30;100.00
21431;BME280;10876;49.038;10.608;2022-11-27T19:43:41;98372.19;;;2.30;100.00
21431;BME280;10876;49.038;10.608;2022-11-27T19:46:13;98372.19;;;2.30;100.00
21431;BME280;10876;49.038;10.608;2022-11-27T19:48:41;98372.19;;;2.30;100.00
21431;BME280;10876;49.038;10.608;2022-11-27T19:51:08;98372.19;;;2.30;100.00
21431;BME280;10876;49.038;10.608;2022-11-27T19:53:38;98372.19;;;2.30;100.00
21431;BME280;10876;49.038;10.608;2022-11-27T19:56:06;98372.19;;;2.30;100.00
21431;BME280;10876;49.038;10.608;2022-11-27T19:58:34;98372.19;;;2.30;100.00
21431;BME280;10876;49.038;10.608;2022-11-27T20:01:06;98372.19;;;2.30;100.00
21431;BME280;10876;49.038;10.608;2022-11-27T20:03:33;98372.19;;;2.30;100.00
21431;BME280;10876;49.038;10.608;2022-11-27T20:06:21;98372.19;;;2.30;100.00
21431;BME280;10876;49.038;10.608;2022-11-27T20:08:58;98372.19;;;2.30;100.00
21431;BME280;10876;49.038;10.608;2022-11-27T20:11:26;98372.19;;;2.30;100.00
21431;BME280;10876;49.038;10.608;2022-11-27T20:13:56;98372.19;;;2.30;100.00
21431;BME280;10876;49.038;10.608;2022-11-27T20:16:25;98372.19;;;2.30;100.00
21431;BME280;10876;49.038;10.608;2022-11-27T20:18:52;98372.19;;;2.30;100.00
21431;BME280;10876;49.038;10.608;2022-11-27T20:21:22;98372.19;;;2.30;100.00
21431;BME280;10876;49.038;10.608;2022-11-27T20:23:50;98372.19;;;2.30;100.00
21431;BME280;10876;49.038;10.608;2022-11-27T20:26:19;98372.19;;;2.30;100.00
21431;BME280;10876;49.038;10.608;2022-11-27T20:28:47;98372.19;;;2.30;100.00
21431;BME280;10876;49.038;10.608;2022-11-27T20:31:16;98372.19;;;2.30;100.00
21431;BME280;10876;49.038;10.608;2022-11-27T20:33:43;98372.19;;;2.30;100.00
21431;BME280;10876;49.038;10.608;2022-11-27T20:36:10;98372.19;;;2.30;100.00
21431;BME280;10876;49.038;10.608;2022-11-27T20:38:38;98372.19;;;2.30;100.00
21431;BME280;10876;49.038;10.608;2022-11-27T20:41:06;98372.19;;;2.30;100.00
21431;BME280;10876;49.038;10.608;2022-11-27T20:43:33;98372.19;;;2.30;100.00
21431;BME280;10876;49.038;10.608;2022-11-27T20:46:00;98372.19;;;2.30;100.00
21431;BME280;10876;49.038;10.608;2022-11-27T20:48:27;98372.19;;;2.30;100.00
21431;BME280;10876;49.038;10.608;2022-11-27T20:50:54;98372.19;;;2.30;100.00
21431;BME280;10876;49.038;10.608;2022-11-27T20:53:21;98372.19;;;2.30;100.00
21431;BME280;10876;49.038;10.608;2022-11-27T20:55:49;98372.19;;;2.30;100.00
21431;BME280;10876;49.038;10.608;2022-11-27T20:58:15;98372.19;;;2.30;100.00
21431;BME280;10876;49.038;10.608;2022-11-27T21:00:42;98372.19;;;2.30;100.00
21431;BME280;10876;49.038;10.608;2022-11-27T21:03:09;98372.19;;;2.30;100.00
21431;BME280;10876;49.038;10.608;2022-11-27T21:05:36;98372.19;;;2.30;100.00
21431;BME280;10876;49.038;10.608;2022-11-27T21:08:07;98372.19;;;2.30;100.00
21431;BME280;10876;49.038;10.608;2022-11-27T21:10:34;98372.19;;;2.30;100.00
21431;BME280;10876;49.038;10.608;2022-11-27T21:13:02;98372.19;;;2.30;100.00
21431;BME280;10876;49.038;10.608;2022-11-27T21:15:29;98372.19;;;2.30;100.00
21431;BME280;10876;49.038;10.608;2022-11-27T21:17:55;98372.19;;;2.30;100.00
21431;BME280;10876;49.038;10.608;2022-11-27T21:20:22;98372.19;;;2.30;100.00
21431;BME280;10876;49.038;10.608;2022-11-27T21:22:49;98372.19;;;2.30;100.00
21431;BME280;10876;49.038;10.608;2022-11-27T21:25:16;98372.19;;;2.30;100.00
21431;BME280;10876;49.038;10.608;2022-11-27T21:27:42;98372.19;;;2.30;100.00
21431;BME280;10876;49.038;10.608;2022-11-27T21:30:10;98372.19;;;2.30;100.00
21431;BME280;10876;49.038;10.608;2022-11-27T21:35:06;98372.19;;;2.30;100.00
21431;BME280;10876;49.038;10.608;2022-11-27T21:37:33;98372.19;;;2.30;100.00
21431;BME280;10876;49.038;10.608;2022-11-27T21:39:59;98372.19;;;2.30;100.00
21431;BME280;10876;49.038;10.608;2022-11-27T21:42:26;98372.19;;;2.30;100.00
21431;BME280;10876;49.038;10.608;2022-11-27T21:44:56;98372.19;;;2.30;100.00
21431;BME280;10876;49.038;10.608;2022-11-27T21:47:25;98372.19;;;2.30;100.00
21431;BME280;10876;49.038;10.608;2022-11-27T21:49:51;98372.19;;;2.30;100.00
21431;BME280;10876;49.038;10.608;2022-11-27T21:52:18;98372.19;;;2.30;100.00
21431;BME280;10876;49.038;10.608;2022-11-27T21:54:45;98372.19;;;2.30;100.00
21431;BME280;10876;49.038;10.608;2022-11-27T21:57:12;98372.19;;;2.30;100.00
21431;BME280;10876;49.038;10.608;2022-11-27T21:59:38;98372.19;;;2.30;100.00
21431;BME280;10876;49.038;10.608;2022-11-27T22:02:09;98372.19;;;2.30;100.00
21431;BME280;10876;49.038;10.608;2022-11-27T22:04:37;98372.19;;;2.30;100.00
21431;BME280;10876;49.038;10.608;2022-11-27T22:07:04;98372.19;;;2.30;100.00
21431;BME280;10876;49.038;10.608;2022-11-27T22:09:32;98372.19;;;2.30;100.00
21431;BME280;10876;49.038;10.608;2022-11-27T22:11:58;98372.19;;;2.30;100.00
21431;BME280;10876;49.038;10.608;2022-11-27T22:14:25;98372.19;;;2.30;100.00
21431;BME280;10876;49.038;10.608;2022-11-27T22:16:52;98372.19;;;2.30;100.00
21431;BME280;10876;49.038;10.608;2022-11-27T22:19:20;98372.19;;;2.30;100.00
21431;BME280;10876;49.038;10.608;2022-11-27T22:21:48;98372.19;;;2.30;100.00
21431;BME280;10876;49.038;10.608;2022-11-27T22:24:15;98372.19;;;2.30;100.00
21431;BME280;10876;49.038;10.608;2022-11-27T22:26:42;98372.19;;;2.30;100.00
21431;BME280;10876;49.038;10.608;2022-11-27T22:29:09;98372.19;;;2.30;100.00
21431;BME280;10876;49.038;10.608;2022-11-27T22:31:35;98372.19;;;2.30;100.00
21431;BME280;10876;49.038;10.608;2022-11-27T22:34:02;98372.19;;;2.30;100.00
21431;BME280;10876;49.038;10.608;2022-11-27T22:36:31;98372.19;;;2.30;100.00
21431;BME280;10876;49.038;10.608;2022-11-27T22:39:00;98372.19;;;2.30;100.00
21431;BME280;10876;49.038;10.608;2022-11-27T22:41:29;98372.19;;;2.30;100.00
21431;BME280;10876;49.038;10.608;2022-11-27T22:43:56;98372.19;;;2.30;100.00
21431;BME280;10876;49.038;10.608;2022-11-27T22:46:26;98372.19;;;2.30;100.00
21431;BME280;10876;49.038;10.608;2022-11-27T22:48:54;98372.19;;;2.30;100.00
21431;BME280;10876;49.038;10.608;2022-11-27T22:51:22;98372.19;;;2.30;100.00
21431;BME280;10876;49.038;10.608;2022-11-27T22:53:49;98372.19;;;2.30;100.00
21431;BME280;10876;49.038;10.608;2022-11-27T22:56:18;98372.19;;;2.30;100.00
21431;BME280;10876;49.038;10.608;2022-11-27T22:58:45;98372.19;;;2.30;100.00
21431;BME280;10876;49.038;10.608;2022-11-27T23:01:13;98372.19;;;2.30;100.00
21431;BME280;10876;49.038;10.608;2022-11-27T23:03:41;98372.19;;;2.30;100.00
21431;BME280;10876;49.038;10.608;2022-11-27T23:06:09;98372.19;;;2.30;100.00
21431;BME280;10876;49.038;10.608;2022-11-27T23:08:37;98372.19;;;2.30;100.00
21431;BME280;10876;49.038;10.608;2022-11-27T23:11:05;98372.19;;;2.30;100.00
21431;BME280;10876;49.038;10.608;2022-11-27T23:13:33;98372.19;;;2.30;100.00
21431;BME280;10876;49.038;10.608;2022-11-27T23:16:00;98372.19;;;2.30;100.00
21431;BME280;10876;49.038;10.608;2022-11-27T23:18:27;98372.19;;;2.30;100.00
21431;BME280;10876;49.038;10.608;2022-11-27T23:20:53;98372.19;;;2.30;100.00
21431;BME280;10876;49.038;10.608;2022-11-27T23:23:20;98372.19;;;2.30;100.00
21431;BME280;10876;49.038;10.608;2022-11-27T23:25:47;98372.19;;;2.30;100.00
21431;BME280;10876;49.038;10.608;2022-11-27T23:28:13;98372.19;;;2.30;100.00
21431;BME280;10876;49.038;10.608;2022-11-27T23:30:41;98372.19;;;2.30;100.00
21431;BME280;10876;49.038;10.608;2022-11-27T23:33:08;98372.19;;;2.30;100.00
21431;BME280;10876;49.038;10.608;2022-11-27T23:35:35;98372.19;;;2.30;100.00
21431;BME280;10876;49.038;10.608;2022-11-27T23:38:02;98372.19;;;2.30;100.00
21431;BME280;10876;49.038;10.608;2022-11-27T23:40:28;98372.19;;;2.30;100.00
21431;BME280;10876;49.038;10.608;2022-11-27T23:42:55;98372.19;;;2.30;100.00
21431;BME280;10876;49.038;10.608;2022-11-27T23:45:22;98372.19;;;2.30;100.00
21431;BME280;10876;49.038;10.608;2022-11-27T23:47:50;98372.19;;;2.30;100.00
21431;BME280;10876;49.038;10.608;2022-11-27T23:50:17;98372.19;;;2.30;100.00
21431;BME280;10876;49.038;10.608;2022-11-27T23:52:43;98372.19;;;2.30;100.00
21431;BME280;10876;49.038;10.608;2022-11-27T23:55:11;98372.19;;;2.30;100.00
21431;BME280;10876;49.038;10.608;2022-11-27T23:57:38;98372.19;;;2.30;100.00
